Latest Weather Observations for Bougainville Reef

IDQ60801

Issued at 9:32 pm EST Friday 12 July 2024 (issued every 10 minutes, with the page automatically refreshed every 10 minutes)

About weather observations | Map of weather stations | Latest weather observations for QLD | Other Formats
Station Details ID: 200840 Name: BOUGAINVILLE REEF Lat: -15.49 Lon: 147.12 Height: 0.0 m
Data from the previous 72 hours. | See also: Recent months for locations in Queensland
Date/Time
EST
Temp
°C
App
Temp
°C
Dew
Point
°C
Rel
Hum
%
Delta-T
°C
Wind Press
QNH
hPa
Press
MSL
hPa
Rain since
9am
mm
Dir  Spd
km/h
Gust
km/h
Spd
kts
Gust
kts
12/09:30pm 24.3 - - - - ESE 20 26 11 14 1012.2 1012.1 -
12/09:00pm 24.4 - - - - ESE 22 28 12 15 1012.1 1012.0 -
12/08:30pm 24.4 - - - - ESE 24 28 13 15 1011.9 1011.8 -
12/08:00pm 24.3 - - - - ESE 26 32 14 17 1011.6 1011.5 -
12/07:30pm 24.3 - - - - ESE 26 30 14 16 1011.3 1011.2 -
12/07:00pm 24.4 - - - - SE 26 30 14 16 1011.1 1011.0 -
12/06:30pm 24.4 - - - - SE 22 26 12 14 1011.0 1010.9 -
12/06:00pm 24.7 - - - - SE 20 26 11 14 1010.9 1010.8 -
12/05:30pm 24.6 - - - - SSE 19 22 10 12 1010.7 1010.6 -
12/05:00pm 24.6 - - - - SSE 20 22 11 12 1010.6 1010.5 -
12/04:30pm 24.6 - - - - SE 20 24 11 13 1010.4 1010.3 -
12/04:00pm 24.6 - - - - SE 20 24 11 13 1010.4 1010.3 -
12/03:30pm 24.7 - - - - SE 19 22 10 12 1010.3 1010.2 -
12/03:00pm 24.7 - - - - SE 20 24 11 13 1010.3 1010.2 -
12/02:30pm 24.6 - - - - ESE 20 24 11 13 1010.3 1010.2 -
12/02:00pm 24.6 - - - - ESE 22 26 12 14 1010.4 1010.3 -
12/01:30pm 24.6 - - - - ESE 20 26 11 14 1010.8 1010.7 -
12/01:00pm 24.7 - - - - SE 20 26 11 14 1011.3 1011.2 -
12/12:30pm 24.6 - - - - SE 24 26 13 14 1011.5 1011.4 -
12/12:00pm 24.6 - - - - SE 24 28 13 15 1011.9 1011.8 -
12/11:30am 24.4 - - - - SE 24 28 13 15 1012.2 1012.1 -
12/11:00am 24.2 - - - - SE 24 28 13 15 1012.3 1012.2 -
12/10:30am 24.5 - - - - SE 22 26 12 14 1012.7 1012.6 -
12/10:00am 24.6 - - - - SE 22 24 12 13 1012.8 1012.7 -
12/09:30am 24.5 - - - - SE 22 26 12 14 1012.9 1012.8 -
12/09:00am 24.4 - - - - SE 24 28 13 15 1012.8 1012.7 -
12/08:30am 24.4 - - - - SE 24 28 13 15 1012.7 1012.6 -
12/08:00am 24.6 - - - - SE 24 28 13 15 1012.4 1012.3 -
12/07:30am 24.6 - - - - SE 24 28 13 15 1012.2 1012.1 -
12/07:00am 24.2 - - - - SE 24 30 13 16 1011.8 1011.7 -
12/06:30am 24.2 - - - - SE 24 28 13 15 1011.7 1011.6 -
12/06:00am 24.1 - - - - SE 26 28 14 15 1011.6 1011.5 -
12/05:30am 24.3 - - - - SE 26 30 14 16 1011.5 1011.4 -
12/05:00am 24.3 - - - - ESE 26 30 14 16 1011.4 1011.3 -
12/04:30am 24.2 - - - - ESE 26 30 14 16 1011.4 1011.3 -
12/04:00am 24.4 - - - - ESE 26 30 14 16 1011.3 1011.2 -
12/03:30am 24.3 - - - - ESE 26 30 14 16 1011.4 1011.3 -
12/03:00am 24.3 - - - - ESE 26 32 14 17 1011.6 1011.5 -
12/02:30am 24.1 - - - - ESE 28 33 15 18 1011.9 1011.8 -
12/02:00am 24.2 - - - - ESE 30 35 16 19 1012.0 1011.9 -
12/01:30am 24.4 - - - - ESE 28 32 15 17 1012.1 1012.0 -
12/01:00am 24.1 - - - - ESE 30 33 16 18 1012.4 1012.3 -
12/12:30am 24.5 - - - - SE 28 35 15 19 1012.7 1012.6 -
12/12:00am 24.6 - - - - ESE 30 33 16 18 1012.9 1012.8 -
 
Date/Time
EST
Temp
°C
App
Temp
°C
Dew
Point
°C
Rel
Hum
%
Delta-T
°C
Wind Press
QNH
hPa
Press
MSL
hPa
Rain since
9am
mm
Dir  Spd
km/h
Gust
km/h
Spd
kts
Gust
kts
11/11:30pm 24.3 - - - - SE 30 35 16 19 1013.2 1013.1 -
11/11:00pm 24.1 - - - - SE 33 39 18 21 1013.4 1013.3 -
11/10:30pm 24.5 - - - - SE 32 37 17 20 1013.7 1013.6 -
11/10:00pm 24.5 - - - - SE 32 35 17 19 1013.8 1013.7 -
11/09:30pm 24.3 - - - - SE 32 37 17 20 1014.0 1013.9 -
11/09:00pm 24.4 - - - - SE 32 37 17 20 1014.0 1013.9 -
11/08:30pm 24.1 - - - - ESE 32 35 17 19 1013.8 1013.7 -
11/08:00pm 24.5 - - - - ESE 33 39 18 21 1013.5 1013.4 -
11/07:30pm 24.4 - - - - ESE 35 39 19 21 1013.3 1013.2 -
11/07:00pm 24.6 - - - - SE 35 39 19 21 1013.0 1012.9 -
11/06:30pm 24.5 - - - - SE 33 39 18 21 1012.7 1012.6 -
11/06:00pm 24.5 - - - - SE 32 35 17 19 1012.8 1012.7 -
11/05:30pm 24.7 - - - - SE 30 33 16 18 1012.8 1012.7 -
11/05:00pm 24.7 - - - - SE 28 32 15 17 1012.6 1012.5 -
11/04:30pm 24.9 - - - - SE 30 35 16 19 1012.3 1012.2 -
11/04:00pm 24.9 - - - - SE 30 35 16 19 1012.0 1011.9 -
11/03:30pm 25.3 - - - - SE 30 33 16 18 1012.1 1012.0 -
11/03:00pm 24.6 - - - - ESE 28 33 15 18 1012.2 1012.1 -
11/02:30pm 24.8 - - - - SE 30 35 16 19 1012.4 1012.3 -
11/02:00pm 24.8 - - - - SE 28 32 15 17 1012.8 1012.7 -
11/01:30pm 25.0 - - - - SE 28 33 15 18 1013.0 1012.9 -
11/01:00pm 24.9 - - - - SE 28 32 15 17 1013.4 1013.3 -
11/12:30pm 24.9 - - - - ESE 28 30 15 16 1014.0 1013.9 -
11/12:00pm 25.2 - - - - ESE 32 35 17 19 1014.3 1014.2 -
11/11:30am 25.0 - - - - SE 32 35 17 19 1014.6 1014.5 -
11/11:00am 24.9 - - - - ESE 32 39 17 21 1015.0 1014.9 -
11/10:30am 24.9 - - - - ESE 32 35 17 19 1015.2 1015.1 -
11/10:00am 24.7 - - - - ESE 32 37 17 20 1015.6 1015.5 -
11/09:30am 25.0 - - - - SE 33 39 18 21 1015.6 1015.5 -
11/09:00am 24.9 - - - - ESE 35 39 19 21 1015.6 1015.5 -
11/08:30am 24.5 - - - - ESE 33 37 18 20 1015.4 1015.3 -
11/08:00am 24.6 - - - - SE 30 35 16 19 1015.1 1015.0 -
11/07:30am 24.6 - - - - SE 32 35 17 19 1014.9 1014.8 -
11/07:00am 24.8 - - - - SE 32 35 17 19 1014.6 1014.5 -
11/06:30am 24.7 - - - - ESE 30 33 16 18 1014.3 1014.2 -
11/06:00am 24.6 - - - - SE 30 33 16 18 1013.9 1013.8 -
11/05:30am 24.8 - - - - ESE 30 33 16 18 1013.7 1013.6 -
11/05:00am 24.8 - - - - ESE 30 33 16 18 1013.5 1013.4 -
11/04:30am 24.6 - - - - ESE 28 33 15 18 1013.5 1013.4 -
11/04:00am 24.6 - - - - ESE 28 32 15 17 1013.4 1013.3 -
11/03:30am 24.5 - - - - ESE 26 30 14 16 1013.3 1013.2 -
11/03:00am 24.5 - - - - ESE 28 33 15 18 1013.5 1013.4 -
11/02:30am 24.3 - - - - ESE 28 32 15 17 1013.7 1013.6 -
11/02:00am 24.5 - - - - SE 30 35 16 19 1013.9 1013.8 -
11/01:30am 24.8 - - - - SE 30 32 16 17 1014.3 1014.2 -
11/01:00am 24.5 - - - - SE 30 35 16 19 1014.7 1014.6 -
11/12:30am 24.1 - - - - SE 28 39 15 21 1014.9 1014.8 -
11/12:00am 24.6 - - - - SE 30 35 16 19 1015.1 1015.0 -
 
Date/Time
EST
Temp
°C
App
Temp
°C
Dew
Point
°C
Rel
Hum
%
Delta-T
°C
Wind Press
QNH
hPa
Press
MSL
hPa
Rain since
9am
mm
Dir  Spd
km/h
Gust
km/h
Spd
kts
Gust
kts
10/11:30pm 24.6 - - - - SE 30 35 16 19 1015.3 1015.2 -
10/11:00pm 24.9 - - - - SE 30 33 16 18 1015.4 1015.3 -
10/10:30pm 24.5 - - - - SE 30 33 16 18 1015.7 1015.6 -
10/10:00pm 24.5 - - - - SE 32 35 17 19 1015.9 1015.8 -
10/09:30pm 24.8 - - - - SE 32 35 17 19 1015.9 1015.8 -
10/09:00pm 24.8 - - - - SE 30 33 16 18 1015.9 1015.8 -
10/08:30pm 24.5 - - - - SE 30 37 16 20 1015.8 1015.7 -
10/08:00pm 24.5 - - - - SE 30 35 16 19 1015.6 1015.5 -
10/07:30pm 24.4 - - - - SE 28 37 15 20 1015.4 1015.3 -
10/07:00pm 24.8 - - - - SE 28 32 15 17 1015.2 1015.1 -
10/06:30pm 24.7 - - - - SE 28 33 15 18 1014.9 1014.8 -
10/06:00pm 24.7 - - - - SE 28 32 15 17 1014.6 1014.5 -
10/05:30pm 24.6 - - - - SE 28 32 15 17 1014.4 1014.3 -
10/05:00pm 24.7 - - - - SE 26 32 14 17 1014.1 1014.0 -
10/04:30pm 24.6 - - - - SE 26 32 14 17 1014.1 1014.0 -
10/04:00pm 24.5 - - - - SE 26 30 14 16 1014.1 1014.0 -
10/03:30pm 24.7 - - - - SSE 28 30 15 16 1014.1 1014.0 -
10/03:00pm 24.4 - - - - SE 26 30 14 16 1014.3 1014.2 -
10/02:30pm 24.6 - - - - SE 24 26 13 14 1014.4 1014.3 -
10/02:00pm 24.5 - - - - SE 26 30 14 16 1014.7 1014.6 -
10/01:30pm 24.7 - - - - SE 26 30 14 16 1015.1 1015.0 -
10/01:00pm 24.9 - - - - SE 24 28 13 15 1015.4 1015.3 -
10/12:30pm 24.6 - - - - SE 26 30 14 16 1015.9 1015.8 -
10/12:00pm 24.5 - - - - SE 26 30 14 16 1016.4 1016.3 -
10/11:30am 24.7 - - - - SE 26 30 14 16 1016.6 1016.5 -
10/11:00am 24.4 - - - - SE 26 30 14 16 1017.0 1016.9 -
10/10:30am 24.7 - - - - SE 26 30 14 16 1017.2 1017.1 -
10/10:00am 24.5 - - - - SE 28 32 15 17 1017.2 1017.1 -
10/09:30am 24.5 - - - - SE 26 30 14 16 1017.3 1017.2 -
10/09:00am 24.5 - - - - SE 28 32 15 17 1017.4 1017.3 -
10/08:30am 24.6 - - - - SE 28 33 15 18 1017.2 1017.1 -
10/08:00am 24.8 - - - - SE 30 35 16 19 1016.9 1016.8 -
10/07:30am 24.5 - - - - SE 28 32 15 17 1016.5 1016.4 -
10/07:00am 24.1 - - - - SE 30 35 16 19 1016.2 1016.1 -
10/06:30am 24.1 - - - - SE 28 33 15 18 1015.8 1015.7 -
10/06:00am 24.5 - - - - SSE 28 35 15 19 1015.6 1015.5 -
10/05:30am 24.2 - - - - SE 28 33 15 18 1015.3 1015.2 -
10/05:00am 24.1 - - - - SE 26 32 14 17 1015.3 1015.2 -
10/04:30am 24.4 - - - - SE 28 33 15 18 1015.2 1015.1 -
10/04:00am 24.3 - - - - ESE 30 33 16 18 1015.3 1015.2 -
10/03:30am 24.4 - - - - SE 32 35 17 19 1015.4 1015.3 -
10/03:00am 24.2 - - - - SE 26 30 14 16 1015.6 1015.5 -
10/02:30am 24.5 - - - - SE 32 35 17 19 1015.9 1015.8 -
10/02:00am 24.4 - - - - SE 28 32 15 17 1016.1 1016.0 -
10/01:30am 24.4 - - - - SE 28 32 15 17 1016.3 1016.2 -
10/01:00am 24.4 - - - - SE 30 33 16 18 1016.4 1016.3 -
10/12:30am 24.5 - - - - SE 28 32 15 17 1016.7 1016.6 -
10/12:00am 24.4 - - - - SE 28 32 15 17 1016.9 1016.8 -
 
Date/Time
EST
Temp
°C
App
Temp
°C
Dew
Point
°C
Rel
Hum
%
Delta-T
°C
Wind Press
QNH
hPa
Press
MSL
hPa
Rain since
9am
mm
Dir  Spd
km/h
Gust
km/h
Spd
kts
Gust
kts
09/11:30pm 24.7 - - - - ESE 28 33 15 18 1017.1 1017.0 -
09/11:00pm 24.7 - - - - ESE 32 35 17 19 1017.0 1016.9 -
09/10:30pm 24.8 - - - - SE 30 35 16 19 1017.2 1017.1 -
09/10:00pm 24.5 - - - - SE 28 33 15 18 1017.3 1017.2 -

Other formats

Comma delimited format used in spreadsheet applications
http://www.bom.gov.au/fwo/IDQ60801/IDQ60801.95288.axf

JavaScript Object Notation format (JSON) in row-major order
http://www.bom.gov.au/fwo/IDQ60801/IDQ60801.95288.json

Data quality

Most of these data are generated automatically and are frequently updated. Quality checks on data are not normally performed. It is possible for incorrect values to appear. Refer to information at About Latest Weather Observations and please check the disclaimer before using these data.